Terminal Aerodrome Forecast
Issued by NWS

Current Version | Previous Version | Graphics & Text | Print | Product List | Glossary On
Versions: 1 2 3 4 5 6 7 8 9 10 11 12 13 14 15 16 17 18 19 20 21 22
000
FTUS41 KRLX 290500
TAFCKB
TAF
KCKB 290529Z 2906/3006 00000KT P6SM SCT160
     FM290700 00000KT 5SM BR SCT160
     FM290900 00000KT 1 1/2SM BR FEW001 SCT180
     FM291100 00000KT 3SM BR BKN200
     FM291300 00000KT P6SM BKN200
     FM291800 VRB03KT P6SM SCT035 BKN160=

USA.gov is the U.S. government's official web portal to all federal, state and local government web resources and services.